Time;durP1;ratioP1;P1;durP2;ratioP2;P2;SDS_P1;SDS_P2;PMS_P1;PMS_P2;Temp;Humidity;BMP_temperature;BMP_pressure;BME280_temperature;BME280_humidity;BME280_pressure;Samples;Min_cycle;Max_cycle;Signal;HPM_P1;HPM_P2
2024/01/03 00:00:10;;;;;;;0.10;0.10;;;;;;;8.57;100.00;96125.09;15290169;19;20479;-62
2024/01/03 00:05:39;;;;;;;0.45;0.10;;;;;;;8.63;100.00;96137.69;15292741;19;20018;-59
2024/01/03 00:11:05;;;;;;;0.10;0.10;;;;;;;8.58;100.00;96119.50;15292523;19;20109;-60
2024/01/03 00:16:36;;;;;;;0.00;0.00;;;;;;;8.64;100.00;96129.41;15294360;19;20370;-60
2024/01/03 00:22:04;;;;;;;0.00;0.00;;;;;;;8.69;100.00;96126.13;15289902;19;20074;-61
2024/01/03 00:27:29;;;;;;;0.00;0.00;;;;;;;8.70;100.00;96126.94;15292059;19;20042;-61
2024/01/03 00:45:31;;;;;;;0.10;0.10;;;;;;;8.86;100.00;96134.59;15289672;19;20352;-60
2024/01/03 00:50:57;;;;;;;0.10;0.00;;;;;;;8.84;100.00;96122.41;15288770;19;20014;-60
2024/01/03 00:56:21;;;;;;;0.50;0.07;;;;;;;8.88;100.00;96132.50;15037294;19;5001205;-59
2024/01/03 01:01:57;;;;;;;1.05;0.10;;;;;;;8.93;100.00;96130.03;15276635;19;20282;-66
2024/01/03 01:07:22;;;;;;;0.17;0.03;;;;;;;9.01;100.00;96131.69;15284725;19;20018;-65
2024/01/03 01:12:46;;;;;;;0.17;0.00;;;;;;;9.07;100.00;96143.47;15289523;19;20018;-66
2024/01/03 01:18:13;;;;;;;0.10;0.10;;;;;;;9.08;100.00;96137.06;15289545;19;20024;-66
2024/01/03 01:23:42;;;;;;;0.32;0.10;;;;;;;9.09;100.00;96139.53;15288057;19;20019;-65
2024/01/03 01:29:07;;;;;;;0.15;0.10;;;;;;;9.06;100.00;96133.75;15286578;19;20023;-64
2024/01/03 01:34:34;;;;;;;0.77;0.17;;;;;;;9.04;100.00;96127.75;15292425;19;20097;-66
2024/01/03 01:39:59;;;;;;;0.73;0.10;;;;;;;9.07;100.00;96138.91;15284945;19;20077;-64
2024/01/03 01:45:24;;;;;;;0.10;0.08;;;;;;;9.08;100.00;96142.44;15286035;19;20035;-65
2024/01/03 01:50:51;;;;;;;0.77;0.10;;;;;;;9.06;100.00;96133.75;15289268;19;20039;-66
2024/01/03 01:56:19;;;;;;;0.52;0.20;;;;;;;9.09;100.00;96152.16;15300810;19;20032;-66
2024/01/03 02:01:51;;;;;;;0.10;0.10;;;;;;;9.15;100.00;96142.44;15296664;19;20478;-66
2024/01/03 02:07:19;;;;;;;0.40;0.15;;;;;;;9.13;100.00;96131.88;15301380;19;20119;-66
2024/01/03 02:12:44;;;;;;;0.63;0.20;;;;;;;9.12;100.00;96127.53;15293732;19;20026;-67
2024/01/03 02:18:10;;;;;;;0.25;0.13;;;;;;;9.14;100.00;96119.28;15302204;19;20019;-66
2024/01/03 02:23:38;;;;;;;0.40;0.20;;;;;;;9.14;100.00;96114.72;15297208;19;20049;-65
2024/01/03 02:28:56;;;;;;;0.25;0.10;;;;;;;9.19;100.00;96109.56;15292649;19;20086;-66
2024/01/03 02:34:21;;;;;;;1.02;0.10;;;;;;;9.23;100.00;96100.03;15302447;19;20010;-63
2024/01/03 02:39:48;;;;;;;0.70;0.20;;;;;;;9.25;100.00;96089.09;15297180;19;20344;-65
2024/01/03 02:45:13;;;;;;;0.63;0.20;;;;;;;9.20;100.00;96073.59;15293423;19;20026;-62
2024/01/03 02:50:37;;;;;;;0.93;0.20;;;;;;;9.17;100.00;96087.44;15300266;19;20010;-62
2024/01/03 02:56:04;;;;;;;1.35;0.32;;;;;;;9.18;100.00;96073.00;15292816;19;20082;-62
2024/01/03 03:01:36;;;;;;;1.35;0.30;;;;;;;9.20;100.00;96059.34;15294088;19;20025;-65
2024/01/03 03:07:01;;;;;;;0.60;0.30;;;;;;;9.13;100.00;96045.13;15292226;19;20415;-65
2024/01/03 03:12:28;;;;;;;0.70;0.30;;;;;;;9.12;100.00;96054.19;15284573;19;20295;-61
2024/01/03 03:17:54;;;;;;;0.50;0.20;;;;;;;9.09;100.00;96048.22;15287775;19;20034;-64
2024/01/03 03:23:18;;;;;;;1.33;0.30;;;;;;;9.03;100.00;96065.19;15288267;19;20645;-64
2024/01/03 03:28:52;;;;;;;1.38;0.20;;;;;;;8.99;100.00;96055.06;15288567;19;20246;-63
2024/01/03 03:34:18;;;;;;;0.77;0.30;;;;;;;9.00;100.00;96070.97;15295817;19;20364;-63
2024/01/03 03:39:43;;;;;;;0.73;0.20;;;;;;;9.02;100.00;96052.78;15296227;19;20475;-64
2024/01/03 03:45:12;;;;;;;0.43;0.20;;;;;;;8.99;100.00;96049.69;15286523;19;20022;-64
2024/01/03 03:50:36;;;;;;;1.25;0.20;;;;;;;8.83;100.00;96051.78;15292534;19;20026;-63
2024/01/03 03:56:01;;;;;;;0.73;0.30;;;;;;;8.80;100.00;96054.88;15292624;19;20022;-64
2024/01/03 04:01:28;;;;;;;0.47;0.30;;;;;;;8.73;100.00;96057.56;15290970;19;20029;-63
2024/01/03 04:06:54;;;;;;;2.03;0.25;;;;;;;8.72;100.00;96073.91;15294873;19;20022;-62
2024/01/03 04:12:25;;;;;;;0.88;0.30;;;;;;;8.77;100.00;96091.03;15293435;19;20335;-62
2024/01/03 04:17:53;;;;;;;0.35;0.20;;;;;;;8.89;100.00;96080.47;15291999;19;20094;-60
2024/01/03 04:23:18;;;;;;;0.30;0.10;;;;;;;8.82;100.00;96087.72;15293040;19;20027;-62
2024/01/03 04:28:43;;;;;;;0.50;0.15;;;;;;;8.79;100.00;96106.91;15287844;19;20025;-62
2024/01/03 04:34:10;;;;;;;0.63;0.10;;;;;;;8.78;100.00;96116.84;15296414;19;20026;-63
2024/01/03 04:39:35;;;;;;;0.40;0.10;;;;;;;8.76;100.00;96099.28;15297766;19;20018;-62
2024/01/03 04:44:59;;;;;;;0.38;0.10;;;;;;;8.66;100.00;96123.84;15287177;19;20026;-62
2024/01/03 04:50:26;;;;;;;0.30;0.10;;;;;;;8.61;100.00;96115.59;15290153;19;20022;-62
2024/01/03 04:55:51;;;;;;;0.20;0.10;;;;;;;8.55;100.00;96138.69;15285151;19;20573;-62
2024/01/03 05:01:23;;;;;;;0.13;0.08;;;;;;;8.48;100.00;96132.50;15290739;19;20022;-60
2024/01/03 05:06:51;;;;;;;0.60;0.10;;;;;;;8.42;100.00;96139.50;15291026;19;20305;-62
2024/01/03 05:12:17;;;;;;;1.45;0.10;;;;;;;8.36;100.00;96139.47;15292370;19;20034;-61
2024/01/03 05:17:42;;;;;;;0.43;0.15;;;;;;;8.33;100.00;96146.09;15285447;19;20015;-62
2024/01/03 05:23:11;;;;;;;0.50;0.15;;;;;;;8.32;100.00;96164.00;15286789;19;20086;-63
2024/01/03 05:28:36;;;;;;;0.45;0.13;;;;;;;8.33;100.00;96170.22;15299915;19;20031;-64
2024/01/03 05:34:01;;;;;;;0.40;0.17;;;;;;;8.36;100.00;96161.75;15332143;19;20506;-64
2024/01/03 05:39:30;;;;;;;0.20;0.10;;;;;;;8.35;100.00;96164.66;15314763;19;20022;-63
2024/01/03 05:44:55;;;;;;;0.20;0.20;;;;;;;8.31;100.00;96180.31;15297780;19;20018;-64
2024/01/03 05:50:20;;;;;;;1.25;0.30;;;;;;;8.31;100.00;96178.47;15304701;19;20553;-64
2024/01/03 05:55:47;;;;;;;2.80;0.30;;;;;;;8.38;100.00;96180.34;15298588;19;20471;-64
2024/01/03 06:01:19;;;;;;;1.05;0.38;;;;;;;8.47;100.00;96179.13;15298274;19;20090;-64
2024/01/03 06:06:45;;;;;;;1.60;0.30;;;;;;;8.51;100.00;96201.03;15300805;19;20089;-66
2024/01/03 06:12:13;;;;;;;1.52;0.40;;;;;;;8.49;100.00;96187.81;15296718;19;20037;-66
2024/01/03 06:17:39;;;;;;;1.05;0.50;;;;;;;8.48;100.00;96197.72;15301638;19;20046;-66
2024/01/03 06:23:03;;;;;;;0.55;0.30;;;;;;;8.57;100.00;96206.41;15298545;19;20013;-66
2024/01/03 06:28:31;;;;;;;1.73;0.50;;;;;;;8.59;100.00;96198.16;15297715;19;20022;-66
2024/01/03 06:33:56;;;;;;;1.83;0.57;;;;;;;8.59;100.00;96201.69;15303100;19;20090;-64
2024/01/03 06:39:21;;;;;;;1.30;0.50;;;;;;;8.62;100.00;96195.91;15301142;19;20422;-66
2024/01/03 06:44:48;;;;;;;1.27;0.50;;;;;;;8.68;100.00;96222.94;15295878;19;20479;-66
2024/01/03 06:50:13;;;;;;;1.08;0.50;;;;;;;8.68;100.00;96210.38;15301162;19;20018;-65
2024/01/03 06:55:37;;;;;;;4.07;0.60;;;;;;;8.61;100.00;96214.88;15291498;19;20023;-66
2024/01/03 07:01:11;;;;;;;1.15;0.47;;;;;;;8.66;100.00;96214.28;15291308;19;20018;-65
2024/01/03 07:06:37;;;;;;;2.05;0.68;;;;;;;8.72;100.00;96219.66;15291638;19;20021;-64
2024/01/03 07:12:02;;;;;;;4.05;0.90;;;;;;;8.78;100.00;96200.06;15295038;19;20026;-64
2024/01/03 07:17:30;;;;;;;3.10;0.82;;;;;;;8.81;100.00;96209.56;15296089;19;20018;-64
2024/01/03 07:22:54;;;;;;;3.05;0.80;;;;;;;8.91;100.00;96206.47;15291637;19;20020;-67
2024/01/03 07:28:19;;;;;;;2.13;0.70;;;;;;;8.95;100.00;96205.00;15296799;19;20021;-65
2024/01/03 07:33:46;;;;;;;1.90;0.80;;;;;;;8.97;100.00;96226.31;15289764;19;20512;-64
2024/01/03 07:39:11;;;;;;;3.75;0.85;;;;;;;9.00;100.00;96215.13;15296635;19;20495;-67
2024/01/03 07:44:41;;;;;;;2.63;0.70;;;;;;;9.00;100.00;96210.59;15291907;19;20421;-64
2024/01/03 07:50:09;;;;;;;2.28;0.70;;;;;;;9.05;100.00;96218.03;15292831;19;20046;-65
2024/01/03 07:55:34;;;;;;;3.55;0.80;;;;;;;9.07;100.00;96214.09;15289594;19;20023;-64
2024/01/03 08:00:59;;;;;;;5.10;0.80;;;;;;;9.12;100.00;96207.28;15286241;19;20070;-63
2024/01/03 08:06:30;;;;;;;2.08;0.70;;;;;;;9.15;100.00;96214.94;15291459;19;20026;-64
2024/01/03 08:11:55;;;;;;;2.43;0.70;;;;;;;9.17;100.00;96220.94;15289521;19;20082;-65
2024/01/03 08:17:20;;;;;;;1.95;0.70;;;;;;;9.15;100.00;96213.06;15290253;19;20288;-65
2024/01/03 08:22:47;;;;;;;1.35;0.55;;;;;;;9.13;100.00;96225.06;15286101;19;20348;-63
2024/01/03 08:28:16;;;;;;;3.90;0.88;;;;;;;9.13;100.00;96193.66;15035084;19;5000863;-63
2024/01/03 08:33:41;;;;;;;2.35;0.70;;;;;;;9.10;100.00;96226.31;15284540;19;20037;-64
2024/01/03 08:39:09;;;;;;;3.80;0.88;;;;;;;9.15;100.00;96212.25;15292880;19;20027;-65
2024/01/03 08:44:34;;;;;;;2.55;0.80;;;;;;;9.19;100.00;96216.16;15290269;19;20018;-65
2024/01/03 08:49:58;;;;;;;0.93;0.55;;;;;;;9.14;100.00;96184.56;15293438;19;20020;-66
2024/01/03 08:55:25;;;;;;;2.58;0.75;;;;;;;9.08;100.00;96167.41;15292300;19;20023;-65
2024/01/03 09:00:57;;;;;;;3.53;1.13;;;;;;;9.10;100.00;96172.59;15282461;19;20026;-65
2024/01/03 09:06:25;;;;;;;3.40;1.00;;;;;;;9.17;100.00;96180.66;15272702;19;20077;-65
2024/01/03 09:11:55;;;;;;;2.67;0.90;;;;;;;9.21;100.00;96195.31;15278916;19;20019;-65
2024/01/03 09:17:20;;;;;;;2.53;0.75;;;;;;;9.21;100.00;96193.47;15286621;19;20419;-65
2024/01/03 09:22:44;;;;;;;2.33;0.80;;;;;;;9.22;100.00;96191.59;15284550;19;20034;-65
2024/01/03 09:28:12;;;;;;;2.30;0.57;;;;;;;9.20;100.00;96183.75;15291968;19;20022;-66
2024/01/03 09:33:36;;;;;;;1.95;0.68;;;;;;;9.23;100.00;96182.50;15284057;19;20077;-64
2024/01/03 09:39:01;;;;;;;2.22;0.70;;;;;;;9.29;100.00;96180.84;15285890;19;20014;-66
2024/01/03 09:44:28;;;;;;;2.00;0.70;;;;;;;9.36;100.00;96173.59;15285963;19;20022;-65
2024/01/03 09:49:53;;;;;;;2.83;0.80;;;;;;;9.50;100.00;96175.22;15029926;19;5001137;-65
2024/01/03 09:55:17;;;;;;;1.52;0.73;;;;;;;9.53;100.00;96169.44;15286314;19;20014;-65
2024/01/03 10:00:44;;;;;;;3.53;0.80;;;;;;;9.56;100.00;96166.34;15280429;19;20018;-65
2024/01/03 10:06:14;;;;;;;2.22;0.80;;;;;;;9.50;100.00;96177.09;15276938;19;20028;-65
2024/01/03 10:11:40;;;;;;;2.35;0.75;;;;;;;9.40;100.00;96188.25;15277406;19;20733;-65
2024/01/03 10:17:17;;;;;;;2.35;0.73;;;;;;;9.42;100.00;96186.19;15304759;19;20025;-66
2024/01/03 10:22:42;;;;;;;1.27;0.60;;;;;;;9.44;100.00;96186.81;15295005;19;20023;-65
2024/01/03 10:28:10;;;;;;;2.05;0.70;;;;;;;9.53;100.00;96180.19;15297596;19;20010;-66
2024/01/03 10:33:38;;;;;;;1.52;0.60;;;;;;;9.54;100.00;96199.81;15293437;19;20018;-66
2024/01/03 10:39:22;;;;;;;1.13;0.57;;;;;;;9.60;100.00;96179.31;15300626;19;20022;-66
2024/01/03 10:44:47;;;;;;;1.90;0.68;;;;;;;9.65;100.00;96169.59;15292883;19;20022;-67
2024/01/03 10:50:15;;;;;;;1.23;0.50;;;;;;;9.67;100.00;96178.28;15296842;19;20023;-66
2024/01/03 10:55:41;;;;;;;2.25;0.57;;;;;;;9.67;100.00;96194.41;15299072;19;20030;-64
2024/01/03 11:01:16;;;;;;;0.95;0.50;;;;;;;9.60;100.00;96158.66;15293463;19;20018;-65
2024/01/03 11:06:54;;;;;;;0.82;0.50;;;;;;;9.46;100.00;96132.84;15288905;19;20016;-66
2024/01/03 11:12:20;;;;;;;2.08;0.80;;;;;;;9.40;100.00;96134.53;15291807;19;20033;-65
2024/01/03 11:17:45;;;;;;;3.72;1.60;;;;;;;9.44;100.00;96129.53;15294011;19;20374;-65
2024/01/03 11:23:12;;;;;;;2.50;0.75;;;;;;;9.41;100.00;96147.72;15291947;19;20017;-65
2024/01/03 11:28:38;;;;;;;1.45;0.52;;;;;;;9.46;100.00;96151.66;15293228;19;20074;-64
2024/01/03 11:34:04;;;;;;;1.33;0.52;;;;;;;9.57;100.00;96169.84;15299039;19;20019;-65
2024/01/03 11:39:41;;;;;;;1.50;0.50;;;;;;;9.67;100.00;96172.09;15296605;19;20014;-65
2024/01/03 11:45:09;;;;;;;1.23;0.40;;;;;;;9.47;100.00;96167.56;15260779;19;20010;-65
2024/01/03 11:50:35;;;;;;;1.00;0.40;;;;;;;9.14;100.00;96179.19;15290195;19;20053;-65
2024/01/03 11:56:02;;;;;;;0.85;0.20;;;;;;;8.94;100.00;96189.94;15290661;19;20035;-65
2024/01/03 12:01:27;;;;;;;0.82;0.30;;;;;;;8.81;100.00;96163.09;15287157;19;20021;-65
2024/01/03 12:06:53;;;;;;;0.65;0.20;;;;;;;8.70;100.00;96177.94;15285815;19;20086;-66
2024/01/03 12:12:21;;;;;;;1.02;0.20;;;;;;;8.75;100.00;96160.19;15289211;19;20018;-65
2024/01/03 12:17:45;;;;;;;0.20;0.20;;;;;;;8.83;100.00;96166.38;15284525;19;20014;-65
2024/01/03 12:23:13;;;;;;;0.20;0.10;;;;;;;8.98;100.00;96168.88;15290515;19;20029;-65
2024/01/03 12:28:40;;;;;;;0.30;0.20;;;;;;;9.05;100.00;96175.91;15291463;19;20014;-65
2024/01/03 12:34:08;;;;;;;0.35;0.20;;;;;;;9.24;100.00;96197.59;15292174;19;20029;-65
2024/01/03 12:39:32;;;;;;;0.30;0.20;;;;;;;9.50;100.00;96177.91;15291417;19;20442;-65
2024/01/03 12:45:00;;;;;;;1.20;0.28;;;;;;;9.83;100.00;96184.25;15292835;19;20010;-65
2024/01/03 12:50:25;;;;;;;0.57;0.20;;;;;;;9.91;100.00;96178.63;15285100;19;20045;-65
2024/01/03 12:55:50;;;;;;;1.50;0.40;;;;;;;10.10;100.00;96170.69;15294086;19;20032;-64
2024/01/03 13:01:17;;;;;;;0.88;0.38;;;;;;;10.37;100.00;96160.63;15292487;19;20014;-64
2024/01/03 13:06:42;;;;;;;1.05;0.20;;;;;;;10.37;100.00;96173.22;15286061;19;20037;-65
2024/01/03 13:12:07;;;;;;;0.45;0.20;;;;;;;10.28;100.00;96189.63;15289132;19;20014;-64
2024/01/03 13:17:35;;;;;;;1.15;0.50;;;;;;;10.31;100.00;96172.22;15282555;19;20035;-64
2024/01/03 13:22:59;;;;;;;1.02;0.43;;;;;;;10.24;100.00;96144.53;15277840;19;20030;-67
2024/01/03 13:28:24;;;;;;;1.85;0.63;;;;;;;10.40;100.00;96129.78;15280747;19;20015;-66
2024/01/03 13:33:51;;;;;;;1.73;0.68;;;;;;;10.39;100.00;96133.50;15284907;19;20028;-67
2024/01/03 13:39:16;;;;;;;2.30;0.70;;;;;;;10.27;100.00;96127.97;15288684;19;20015;-64
2024/01/03 13:44:40;;;;;;;1.50;0.47;;;;;;;10.22;100.00;96125.09;15289737;19;20082;-66
2024/01/03 13:50:09;;;;;;;3.00;0.70;;;;;;;10.17;100.00;96141.88;15297108;19;20024;-64
2024/01/03 13:55:33;;;;;;;3.53;0.82;;;;;;;10.18;100.00;96141.66;15299681;19;20078;-59
2024/01/03 14:00:58;;;;;;;3.00;0.80;;;;;;;10.48;100.00;96141.13;15301057;19;20022;-64
2024/01/03 14:06:25;;;;;;;2.30;0.70;;;;;;;10.47;100.00;96154.78;15300222;19;20021;-62
2024/01/03 14:11:56;;;;;;;2.08;0.60;;;;;;;10.34;100.00;96174.50;15302576;19;20025;-65
2024/01/03 14:17:21;;;;;;;1.03;0.20;;;;;;;10.12;100.00;96169.44;15296143;19;20007;-63
2024/01/03 14:22:48;;;;;;;1.88;0.50;;;;;;;9.91;100.00;96167.06;15295306;19;20683;-64
2024/01/03 14:28:14;;;;;;;0.85;0.45;;;;;;;9.66;100.00;96160.50;15287595;19;20025;-66
2024/01/03 14:33:39;;;;;;;1.92;0.55;;;;;;;9.51;100.00;96179.56;15297300;19;20014;-64
2024/01/03 14:39:10;;;;;;;1.35;0.40;;;;;;;9.44;100.00;96168.00;15301916;19;20042;-64
2024/01/03 14:44:28;;;;;;;1.55;0.50;;;;;;;9.28;100.00;96173.81;15300099;19;20024;-63
2024/01/03 14:49:48;;;;;;;1.63;0.50;;;;;;;9.18;100.00;96177.75;15300984;19;20025;-64
2024/01/03 14:55:16;;;;;;;1.42;0.57;;;;;;;9.20;100.00;96178.38;15297637;19;20038;-64
2024/01/03 15:00:42;;;;;;;2.03;0.80;;;;;;;9.17;100.00;96172.59;15292578;19;20085;-65
2024/01/03 15:06:06;;;;;;;1.90;0.60;;;;;;;9.06;100.00;96182.91;15295075;19;20491;-65
2024/01/03 15:11:34;;;;;;;1.00;0.60;;;;;;;8.97;100.00;96183.34;15296576;19;20025;-64
2024/01/03 15:16:59;;;;;;;1.65;0.70;;;;;;;8.91;100.00;96179.63;15298705;19;20021;-65
2024/01/03 15:22:26;;;;;;;1.60;0.80;;;;;;;8.89;100.00;96179.00;15291434;19;20014;-69
2024/01/03 15:27:58;;;;;;;1.85;0.70;;;;;;;8.86;100.00;96177.56;15291738;19;20028;-55
2024/01/03 15:33:24;;;;;;;1.92;0.85;;;;;;;8.83;100.00;96177.97;15285884;19;20017;-53
2024/01/03 15:38:48;;;;;;;1.25;0.60;;;;;;;8.75;100.00;96180.84;15289789;19;20390;-52
2024/01/03 15:44:16;;;;;;;2.40;0.80;;;;;;;8.65;100.00;96167.81;14784264;19;10002231;-53
2024/01/03 15:49:41;;;;;;;2.30;0.80;;;;;;;8.60;100.00;96172.97;15269302;19;20018;-63
2024/01/03 15:55:07;;;;;;;2.40;0.90;;;;;;;8.52;100.00;96170.50;15298252;19;20627;-64
2024/01/03 16:00:34;;;;;;;4.57;0.93;;;;;;;8.48;100.00;96170.06;15293361;19;20006;-65
2024/01/03 16:06:05;;;;;;;2.25;0.80;;;;;;;8.45;100.00;96149.81;15286042;19;20074;-63
2024/01/03 16:11:30;;;;;;;3.83;1.00;;;;;;;8.46;100.00;96161.38;15293862;19;20014;-63
2024/01/03 16:16:57;;;;;;;4.00;1.20;;;;;;;8.44;100.00;96158.06;15288711;19;20014;-63
2024/01/03 16:22:24;;;;;;;3.88;1.40;;;;;;;8.38;100.00;96169.63;15287336;19;20025;-63
2024/01/03 16:27:52;;;;;;;3.30;1.27;;;;;;;8.32;100.00;96172.06;15292265;19;20082;-62
2024/01/03 16:33:20;;;;;;;3.85;1.20;;;;;;;8.25;100.00;96176.59;15287857;19;20020;-63
2024/01/03 16:38:44;;;;;;;4.40;1.38;;;;;;;8.21;100.00;96167.28;15288010;19;20025;-63
2024/01/03 16:44:09;;;;;;;4.47;1.30;;;;;;;8.20;100.00;96173.69;15292699;19;20018;-60
2024/01/03 16:49:38;;;;;;;1.90;0.90;;;;;;;8.17;100.00;96166.88;15292006;19;20038;-63
2024/01/03 16:55:04;;;;;;;5.35;1.05;;;;;;;8.22;100.00;96166.25;15292885;19;20070;-63
2024/01/03 17:00:29;;;;;;;3.00;0.90;;;;;;;8.27;100.00;96166.50;15290954;19;20026;-65
2024/01/03 17:06:04;;;;;;;2.72;0.90;;;;;;;8.32;100.00;96155.97;15286284;19;20094;-66
2024/01/03 17:11:31;;;;;;;3.35;0.95;;;;;;;8.37;100.00;96154.53;15284221;19;20035;-64
2024/01/03 17:16:55;;;;;;;3.15;0.90;;;;;;;8.43;100.00;96159.09;15293749;19;20054;-61
2024/01/03 17:22:23;;;;;;;4.22;0.85;;;;;;;8.45;100.00;96151.66;15288411;19;20074;-64
2024/01/03 17:27:47;;;;;;;1.83;0.73;;;;;;;8.49;100.00;96161.00;15303250;19;20106;-63
2024/01/03 17:33:13;;;;;;;4.03;0.90;;;;;;;8.53;100.00;96156.03;15302443;19;20077;-63
2024/01/03 17:38:40;;;;;;;2.42;1.08;;;;;;;8.53;100.00;96164.91;15307147;19;20024;-64
2024/01/03 17:44:06;;;;;;;2.30;0.85;;;;;;;8.47;100.00;96152.28;15300847;19;20458;-63
2024/01/03 17:49:30;;;;;;;2.75;0.90;;;;;;;8.41;100.00;96153.13;15305320;19;20015;-65
2024/01/03 17:54:58;;;;;;;2.17;0.80;;;;;;;8.35;100.00;96148.56;15305929;19;20022;-66
2024/01/03 18:00:24;;;;;;;2.75;0.80;;;;;;;8.28;100.00;96154.75;15300986;19;20098;-62
2024/01/03 18:05:55;;;;;;;2.15;0.73;;;;;;;8.29;100.00;96134.91;15297962;19;20018;-64
2024/01/03 18:11:23;;;;;;;2.60;0.70;;;;;;;8.25;100.00;96139.03;15299615;19;20022;-65
2024/01/03 18:16:47;;;;;;;2.50;0.90;;;;;;;8.18;100.00;96143.53;15298095;19;20026;-68
2024/01/03 18:22:13;;;;;;;2.53;0.88;;;;;;;8.11;100.00;96145.41;15296662;19;20029;-61
2024/01/03 18:27:40;;;;;;;2.85;0.98;;;;;;;8.10;100.00;96141.06;15297140;19;20011;-64
2024/01/03 18:33:05;;;;;;;3.05;1.00;;;;;;;8.08;100.00;96143.09;15298179;19;20355;-66
2024/01/03 18:38:31;;;;;;;3.38;0.90;;;;;;;8.07;100.00;96115.47;15300720;19;20014;-62
2024/01/03 18:43:59;;;;;;;2.85;0.80;;;;;;;8.10;100.00;96124.97;15294106;19;20744;-64
2024/01/03 18:49:23;;;;;;;4.43;0.82;;;;;;;8.13;100.00;96114.66;15293909;19;20014;-64
2024/01/03 18:54:48;;;;;;;3.05;0.98;;;;;;;8.13;100.00;96103.13;15298197;19;20064;-63
2024/01/03 19:00:17;;;;;;;2.95;1.02;;;;;;;8.15;100.00;96111.78;15297956;19;20017;-63
2024/01/03 19:05:48;;;;;;;3.03;0.95;;;;;;;8.23;100.00;96111.59;15294496;19;20021;-63
2024/01/03 19:11:13;;;;;;;3.40;1.00;;;;;;;8.31;100.00;96116.75;15298080;19;20024;-64
2024/01/03 19:16:41;;;;;;;1.83;0.70;;;;;;;8.38;100.00;96121.31;15299052;19;20018;-63
2024/01/03 19:22:06;;;;;;;4.03;1.00;;;;;;;8.44;100.00;96093.66;15295433;19;20359;-63
2024/01/03 19:27:31;;;;;;;2.08;0.85;;;;;;;8.44;100.00;96099.88;15294782;19;20027;-63
2024/01/03 19:32:59;;;;;;;2.00;0.52;;;;;;;8.47;100.00;96087.91;15290598;19;20010;-62
2024/01/03 19:38:23;;;;;;;2.30;0.60;;;;;;;8.53;100.00;96083.59;15294196;19;20378;-63
2024/01/03 19:43:48;;;;;;;1.50;0.50;;;;;;;8.52;100.00;96096.19;15293143;19;20025;-62
2024/01/03 19:49:16;;;;;;;1.45;0.40;;;;;;;8.48;100.00;96070.78;15286200;19;20774;-64
2024/01/03 19:54:41;;;;;;;1.98;0.30;;;;;;;8.42;100.00;96067.06;15294318;19;20021;-62
2024/01/03 20:00:07;;;;;;;0.68;0.30;;;;;;;8.40;100.00;96076.34;15293285;19;20794;-60
2024/01/03 20:05:41;;;;;;;0.88;0.30;;;;;;;8.35;100.00;96076.13;15288346;19;20018;-59
2024/01/03 20:11:07;;;;;;;0.70;0.43;;;;;;;8.29;100.00;96069.72;15291919;19;20423;-59
2024/01/03 20:16:34;;;;;;;0.43;0.30;;;;;;;8.24;100.00;96056.94;15295700;19;20081;-62
2024/01/03 20:22:02;;;;;;;0.35;0.20;;;;;;;8.21;100.00;96069.94;15287669;19;20074;-60
2024/01/03 20:27:27;;;;;;;0.30;0.30;;;;;;;8.16;100.00;96081.28;15293891;19;20018;-60
2024/01/03 20:32:52;;;;;;;0.20;0.20;;;;;;;8.10;100.00;96076.69;15290868;19;20010;-61
2024/01/03 20:38:19;;;;;;;0.68;0.30;;;;;;;8.05;100.00;96077.31;15291877;19;20014;-62
2024/01/03 20:43:44;;;;;;;0.63;0.35;;;;;;;8.00;100.00;96072.56;15291719;19;20041;-62
2024/01/03 20:49:08;;;;;;;0.60;0.40;;;;;;;8.00;100.00;96083.28;15289762;19;20045;-63
2024/01/03 20:54:37;;;;;;;0.40;0.20;;;;;;;8.05;100.00;96087.22;15288429;19;20025;-61
2024/01/03 21:00:03;;;;;;;0.73;0.40;;;;;;;8.09;100.00;96091.13;15291843;19;20078;-62
2024/01/03 21:05:34;;;;;;;0.43;0.22;;;;;;;8.13;100.00;96100.44;15287354;19;20357;-62
2024/01/03 21:11:03;;;;;;;2.03;0.67;;;;;;;8.14;100.00;96099.41;15288951;19;20018;-60
2024/01/03 21:16:27;;;;;;;1.25;0.30;;;;;;;8.18;100.00;96108.69;15289413;19;20037;-61
2024/01/03 21:21:52;;;;;;;0.55;0.32;;;;;;;8.22;100.00;96106.44;15289845;19;20029;-62
2024/01/03 21:27:19;;;;;;;0.60;0.20;;;;;;;8.23;100.00;96119.66;15284758;19;20493;-61
2024/01/03 21:33:04;;;;;;;0.82;0.32;;;;;;;8.20;100.00;96092.41;15285005;19;20025;-61
2024/01/03 21:38:28;;;;;;;0.10;0.10;;;;;;;8.14;100.00;96091.38;15288854;19;20019;-61
2024/01/03 21:43:56;;;;;;;0.20;0.20;;;;;;;8.06;100.00;96075.44;15284503;19;20023;-62
2024/01/03 21:49:20;;;;;;;0.10;0.10;;;;;;;7.94;100.00;96092.13;15284924;19;20412;-59
2024/01/03 21:54:45;;;;;;;0.10;0.10;;;;;;;7.85;100.00;96106.75;15290815;19;20017;-61
2024/01/03 22:00:15;;;;;;;0.15;0.10;;;;;;;7.75;100.00;96100.94;15283847;19;20042;-61
2024/01/03 22:05:45;;;;;;;0.20;0.13;;;;;;;7.64;100.00;96105.84;15281980;19;20053;-61
2024/01/03 22:11:10;;;;;;;0.73;0.10;;;;;;;7.49;100.00;96091.75;15298099;19;20399;-59
2024/01/03 22:16:38;;;;;;;0.20;0.10;;;;;;;7.34;100.00;96087.41;15304877;19;20031;-59
2024/01/03 22:22:02;;;;;;;0.43;0.20;;;;;;;7.18;100.00;96095.75;15301294;19;20081;-59
2024/01/03 22:27:26;;;;;;;0.20;0.20;;;;;;;7.02;100.00;96095.03;15275075;19;20018;-60
2024/01/03 22:32:54;;;;;;;0.13;0.10;;;;;;;6.94;100.00;96105.88;15294092;19;20018;-59
2024/01/03 22:38:19;;;;;;;0.20;0.10;;;;;;;6.86;100.00;96114.06;15306267;19;20022;-60
2024/01/03 22:43:44;;;;;;;0.10;0.10;;;;;;;6.80;100.00;96126.38;15273498;19;20029;-60
2024/01/03 22:49:12;;;;;;;0.52;0.22;;;;;;;6.80;100.00;96134.41;15299501;19;20010;-60
2024/01/03 22:54:38;;;;;;;1.38;0.30;;;;;;;6.80;100.00;96142.44;15302434;19;20082;-59
2024/01/03 23:00:03;;;;;;;0.10;0.10;;;;;;;6.84;100.00;96158.94;15301356;19;20021;-61
2024/01/03 23:05:38;;;;;;;0.88;0.30;;;;;;;6.89;100.00;96135.06;15287715;19;20664;-60
2024/01/03 23:11:03;;;;;;;0.85;0.28;;;;;;;6.91;100.00;96135.72;15292890;19;20022;-61
2024/01/03 23:16:28;;;;;;;0.57;0.20;;;;;;;6.92;100.00;96140.88;15301868;19;20010;-59
2024/01/03 23:21:55;;;;;;;1.10;0.20;;;;;;;6.96;100.00;96156.53;15300295;19;20010;-61
2024/01/03 23:27:22;;;;;;;0.35;0.20;;;;;;;6.92;100.00;96153.44;15330582;19;20003;-62
2024/01/03 23:32:46;;;;;;;1.58;0.40;;;;;;;6.93;100.00;96157.75;15304401;19;20019;-61
2024/01/03 23:38:14;;;;;;;0.77;0.30;;;;;;;6.94;100.00;96160.22;15293557;19;20014;-60
2024/01/03 23:43:39;;;;;;;1.27;0.30;;;;;;;6.98;100.00;96160.69;15040099;19;5001737;-61
2024/01/03 23:49:05;;;;;;;0.17;0.17;;;;;;;7.07;100.00;96169.38;15296000;19;20475;-61
2024/01/03 23:54:33;;;;;;;0.32;0.20;;;;;;;7.13;100.00;96167.78;15295660;19;20018;-61
2024/01/03 23:59:57;;;;;;;0.40;0.20;;;;;;;7.20;100.00;96161.44;15294896;19;20025;-60
